Brevik, Minnesota
Current Conditions -  °F | °C
As of 2:16 PM on Thursday 29 Jan 2015 (Local Time) from KXVG Reporting Station
Overcast Overcast  
Wind Chill:   Ceiling: 2100
Heat Index: 12°   Visibility: 10mi
Dew Point:   Wind: 9mph
Humidity: 79%   Direction: 310°NW
Pressure: 30.34"   Gusts: 17mph
Location:  47.0632°N, 94.1534°W
Report Text: KXVG 292016Z AUTO 31008G15KT 294V354 10SM OVC021 M11/M14 A3034 RMK AO2
Loading
Personal Weather Stations






























Interactive Weather Map New forecast layout! Learn more

10-Day Weather Forecast

Advertisements
Track Severe Weather on mobile